Duluth, Minnesota
Current Conditions -  °F | °C
As of 7:07 AM on Friday 28 Nov 2014 (Local Time) from KDLH Reporting Station
Light Snow Light Snow  
Wind Chill: -4°   Ceiling: 1700
Heat Index:   Visibility: 2mi
Dew Point:   Wind: 8mph
Humidity: 83%   Direction: 130°SE
Pressure: 30.02"   Gusts: NA
Location:  46.79°N, 92.09°W
Report Text: KDLH 281307Z 13007KT 2SM -SN OVC017 M13/M16 A3002 RMK AO2 P0000 T11331156
Loading
Personal Weather Stations






























Interactive Weather Map New forecast layout! Learn more

10-Day Weather Forecast

Advertisements
Track Severe Weather on mobile